Wind From: 11-12-2017 12:03 Until: 12-12-2017 06:00 warning for: Wind Level: Orange info button

Power and phone distribution networks may be disrupted for relatively long periods., Roofs and chimneys can be damaged. , Tree branches may break. , Vehicles can be deported. , Traffic may be disrupted, particularly on secondary roads in forest areas. Limit your trips. , Limit your speed in highway driving, especially if you drive a vehicle or hitch sensitive to wind. , Do not go for walks in forests or along the coast., In town, be vigilant against possible falling objects., Do not work on roofs and do not touch any electrical line fallen on the ground., Store or secure sensitive objects to wind or likely to be damaged., Always install power generators outside buildings. 


Meteo18 Weather Cam more information Meteo18 Weather Cam


Thunder radar more information blitzortung!


Rain radar more information rain snow radar


Visit our other weather sites:

Template documentation
and downloads

And another site



Weather Underground History page Text

Daily Summary for July 26, 2016 Units:  Metric    English   Both
« Previous Day
Next Day »
Daily Weekly Monthly Yearly Custom
  High: Low: Average:
Temperature: 25.7 °C 17.3 °C 22 °C
Dew Point: 18.1 °C 12.4 °C 14.5 °C
Humidity: 85 % 46 % 64 %
Wind Speed: 19.3 km/h 0.0 km/h 6.3 km/h
Wind Gust: 25.7 km/h - -
Wind:- - WSW
Pressure: 1021.9 hPa 1019.5 hPa -
Precipitation: 0.0 mm    
Historical Graphs
 
 
Tabular Data for July 26, 2016
Time Temperature Dew Point Pressure Wind Wind Speed Wind Gust Humidity Rainfall Rate (Hourly)
00:02 21.9 °C 17.7 °C 1019.9 hPa NNW 3.2 km/h 9.7 km/h 77 % 0.0 mm
00:07 21.7 °C 17.7 °C 1019.9 hPa North 3.2 km/h 8.0 km/h 78 % 0.0 mm
00:12 21.7 °C 17.9 °C 1019.9 hPa North 4.8 km/h 8.0 km/h 79 % 0.0 mm
00:17 21.7 °C 17.9 °C 1019.9 hPa North 4.8 km/h 9.7 km/h 79 % 0.0 mm
00:22 21.8 °C 18.0 °C 1019.9 hPa NNW 3.2 km/h 9.7 km/h 79 % 0.0 mm
00:27 21.8 °C 18.0 °C 1019.9 hPa North 3.2 km/h 9.7 km/h 79 % 0.0 mm
00:32 21.8 °C 18.0 °C 1019.9 hPa NW 3.2 km/h 9.7 km/h 79 % 0.0 mm
00:37 21.8 °C 18.0 °C 1020.2 hPa NNW 4.8 km/h 9.7 km/h 79 % 0.0 mm
00:47 21.8 °C 18.0 °C 1019.9 hPa NW 3.2 km/h 11.3 km/h 79 % 0.0 mm
00:52 21.7 °C 18.1 °C 1019.9 hPa NW 8.0 km/h 11.3 km/h 80 % 0.0 mm
00:57 21.7 °C 18.1 °C 1019.9 hPa NW 4.8 km/h 12.9 km/h 80 % 0.0 mm
01:02 21.7 °C 18.1 °C 1019.9 hPa NNW 6.4 km/h 12.9 km/h 80 % 0.0 mm
01:07 21.7 °C 18.1 °C 1019.9 hPa NNE 8.0 km/h 14.5 km/h 80 % 0.0 mm
01:12 21.6 °C 18.0 °C 1019.9 hPa NNW 3.2 km/h 14.5 km/h 80 % 0.0 mm
01:17 21.5 °C 17.9 °C 1019.9 hPa North 8.0 km/h 16.1 km/h 80 % 0.0 mm
01:22 21.4 °C 18.0 °C 1019.9 hPa NNW 6.4 km/h 16.1 km/h 81 % 0.0 mm
01:27 21.3 °C 17.9 °C 1019.9 hPa NNW 8.0 km/h 16.1 km/h 81 % 0.0 mm
01:32 21.3 °C 17.9 °C 1019.9 hPa NW 4.8 km/h 16.1 km/h 81 % 0.0 mm
01:37 21.3 °C 17.9 °C 1019.9 hPa NNW 3.2 km/h 16.1 km/h 81 % 0.0 mm
01:42 21.2 °C 17.8 °C 1019.9 hPa NNW 4.8 km/h 16.1 km/h 81 % 0.0 mm
01:52 21.2 °C 17.8 °C 1019.9 hPa North 4.8 km/h 16.1 km/h 81 % 0.0 mm
01:57 21.2 °C 17.8 °C 1019.9 hPa WNW 3.2 km/h 12.9 km/h 81 % 0.0 mm
02:02 21.1 °C 17.7 °C 1019.9 hPa North 1.6 km/h 12.9 km/h 81 % 0.0 mm
02:07 21.1 °C 17.7 °C 1019.9 hPa NNW 3.2 km/h 12.9 km/h 81 % 0.0 mm
02:12 21.1 °C 17.7 °C 1019.9 hPa NW 9.7 km/h 12.9 km/h 81 % 0.0 mm
02:17 21.1 °C 17.7 °C 1019.9 hPa NNW 9.7 km/h 11.3 km/h 81 % 0.0 mm
02:22 21.1 °C 17.7 °C 1019.9 hPa NNW 8.0 km/h 11.3 km/h 81 % 0.0 mm
02:27 21.1 °C 17.7 °C 1019.9 hPa North 9.7 km/h 16.1 km/h 81 % 0.0 mm
02:32 21.0 °C 17.6 °C 1019.9 hPa NW 11.3 km/h 16.1 km/h 81 % 0.0 mm
02:37 20.9 °C 17.5 °C 1019.9 hPa NW 4.8 km/h 17.7 km/h 81 % 0.0 mm
02:42 20.8 °C 17.4 °C 1019.9 hPa NW 8.0 km/h 17.7 km/h 81 % 0.0 mm
02:47 20.8 °C 17.4 °C 1019.9 hPa North 8.0 km/h 17.7 km/h 81 % 0.0 mm
02:52 20.8 °C 17.4 °C 1019.9 hPa North 11.3 km/h 17.7 km/h 81 % 0.0 mm
02:57 20.7 °C 17.3 °C 1019.9 hPa NNW 11.3 km/h 17.7 km/h 81 % 0.0 mm
03:02 20.7 °C 17.3 °C 1019.9 hPa NNW 6.4 km/h 17.7 km/h 81 % 0.0 mm
03:07 20.7 °C 17.3 °C 1019.9 hPa NNE 11.3 km/h 16.1 km/h 81 % 0.0 mm
03:12 20.7 °C 17.3 °C 1019.9 hPa North 6.4 km/h 16.1 km/h 81 % 0.0 mm
03:17 20.7 °C 17.3 °C 1019.9 hPa NNE 6.4 km/h 16.1 km/h 81 % 0.0 mm
03:22 20.6 °C 17.2 °C 1019.9 hPa WNW 6.4 km/h 16.1 km/h 81 % 0.0 mm
03:32 20.4 °C 17.0 °C 1019.9 hPa NW 11.3 km/h 16.1 km/h 81 % 0.0 mm
03:37 20.4 °C 17.0 °C 1019.9 hPa NNW 11.3 km/h 19.3 km/h 81 % 0.0 mm
03:42 20.3 °C 16.9 °C 1019.9 hPa NNW 8.0 km/h 19.3 km/h 81 % 0.0 mm
03:47 20.2 °C 17.0 °C 1019.9 hPa NNW 8.0 km/h 19.3 km/h 82 % 0.0 mm
03:52 20.2 °C 17.0 °C 1019.9 hPa NNW 11.3 km/h 19.3 km/h 82 % 0.0 mm
03:57 20.1 °C 16.9 °C 1019.9 hPa NNW 11.3 km/h 14.5 km/h 82 % 0.0 mm
04:02 20.1 °C 16.9 °C 1019.9 hPa NW 9.7 km/h 14.5 km/h 82 % 0.0 mm
04:07 20.0 °C 16.8 °C 1019.9 hPa NNW 6.4 km/h 17.7 km/h 82 % 0.0 mm
04:12 19.9 °C 16.7 °C 1019.9 hPa NNW 8.0 km/h 17.7 km/h 82 % 0.0 mm
04:17 19.8 °C 16.8 °C 1019.9 hPa NNW 11.3 km/h 19.3 km/h 83 % 0.0 mm
04:22 19.7 °C 16.7 °C 1019.9 hPa North 6.4 km/h 19.3 km/h 83 % 0.0 mm
04:27 19.5 °C 16.5 °C 1019.9 hPa NW 9.7 km/h 19.3 km/h 83 % 0.0 mm
04:32 19.4 °C 16.6 °C 1019.9 hPa NNW 8.0 km/h 19.3 km/h 84 % 0.0 mm
04:37 19.3 °C 16.7 °C 1019.9 hPa NNW 6.4 km/h 12.9 km/h 85 % 0.0 mm
04:42 19.3 °C 16.7 °C 1019.9 hPa NNW 4.8 km/h 12.9 km/h 85 % 0.0 mm
04:47 19.2 °C 16.6 °C 1019.9 hPa NW 6.4 km/h 14.5 km/h 85 % 0.0 mm
04:52 19.2 °C 16.6 °C 1019.9 hPa NW 9.7 km/h 14.5 km/h 85 % 0.0 mm
05:02 19.1 °C 16.3 °C 1019.9 hPa NNE 11.3 km/h 14.5 km/h 84 % 0.0 mm
05:12 18.9 °C 15.9 °C 1019.9 hPa NE 11.3 km/h 19.3 km/h 83 % 0.0 mm
05:22 18.8 °C 16.0 °C 1020.2 hPa NNW 4.8 km/h 19.3 km/h 84 % 0.0 mm
05:32 18.6 °C 15.8 °C 1019.9 hPa North 12.9 km/h 17.7 km/h 84 % 0.0 mm
05:42 18.4 °C 15.6 °C 1019.9 hPa NNE 4.8 km/h 19.3 km/h 84 % 0.0 mm
05:47 18.3 °C 15.5 °C 1020.2 hPa NNW 6.4 km/h 19.3 km/h 84 % 0.0 mm
05:52 18.2 °C 15.5 °C 1020.2 hPa NNW 4.8 km/h 19.3 km/h 84 % 0.0 mm
05:57 18.1 °C 15.4 °C 1020.2 hPa NNW 12.9 km/h 17.7 km/h 84 % 0.0 mm
06:02 18.1 °C 15.4 °C 1020.2 hPa North 12.9 km/h 17.7 km/h 84 % 0.0 mm
06:07 17.9 °C 15.0 °C 1020.2 hPa North 11.3 km/h 16.1 km/h 83 % 0.0 mm
06:13 17.9 °C 15.0 °C 1020.2 hPa North 12.9 km/h 16.1 km/h 83 % 0.0 mm
06:22 17.8 °C 14.9 °C 1020.2 hPa NNW 9.7 km/h 20.9 km/h 83 % 0.0 mm
06:32 17.6 °C 14.7 °C 1020.5 hPa North 8.0 km/h 19.3 km/h 83 % 0.0 mm
06:42 17.6 °C 14.7 °C 1020.5 hPa North 9.7 km/h 16.1 km/h 83 % 0.0 mm
06:52 17.6 °C 14.5 °C 1020.5 hPa North 14.5 km/h 20.9 km/h 82 % 0.0 mm
07:02 17.5 °C 14.4 °C 1020.5 hPa NNE 3.2 km/h 20.9 km/h 82 % 0.0 mm
07:12 17.4 °C 14.3 °C 1020.5 hPa ENE 12.9 km/h 22.5 km/h 82 % 0.0 mm
07:17 17.3 °C 13.8 °C 1020.5 hPa North 19.3 km/h 22.5 km/h 80 % 0.0 mm
07:22 17.3 °C 13.8 °C 1020.9 hPa North 11.3 km/h 22.5 km/h 80 % 0.0 mm
07:32 17.3 °C 13.6 °C 1020.9 hPa NW 11.3 km/h 25.7 km/h 79 % 0.0 mm
07:37 17.4 °C 13.7 °C 1020.9 hPa NNW 3.2 km/h 19.3 km/h 79 % 0.0 mm
07:42 17.6 °C 13.7 °C 1020.9 hPa ENE 6.4 km/h 19.3 km/h 78 % 0.0 mm
07:47 17.6 °C 13.7 °C 1020.9 hPa NE 4.8 km/h 17.7 km/h 78 % 0.0 mm
07:57 17.4 °C 13.5 °C 1021.2 hPa NE 3.2 km/h 19.3 km/h 78 % 0.0 mm
08:02 17.6 °C 13.7 °C 1021.2 hPa WNW 3.2 km/h 19.3 km/h 78 % 0.0 mm
08:12 17.9 °C 13.6 °C 1021.2 hPa NE 12.9 km/h 17.7 km/h 76 % 0.0 mm
08:17 17.9 °C 13.6 °C 1021.6 hPa NNW 3.2 km/h 17.7 km/h 76 % 0.0 mm
08:22 17.7 °C 13.4 °C 1021.6 hPa NE 12.9 km/h 17.7 km/h 76 % 0.0 mm
08:32 17.6 °C 13.3 °C 1021.6 hPa NNE 6.4 km/h 17.7 km/h 76 % 0.0 mm
08:42 17.7 °C 13.2 °C 1021.6 hPa NW 9.7 km/h 17.7 km/h 75 % 0.0 mm
08:52 17.7 °C 13.2 °C 1021.6 hPa NNE 8.0 km/h 19.3 km/h 75 % 0.0 mm
08:57 17.7 °C 13.2 °C 1021.6 hPa North 8.0 km/h 19.3 km/h 75 % 0.0 mm
09:07 18.2 °C 13.5 °C 1021.6 hPa NE 1.6 km/h 19.3 km/h 74 % 0.0 mm
09:17 18.7 °C 13.8 °C 1021.9 hPa North 9.7 km/h 17.7 km/h 73 % 0.0 mm
09:22 18.8 °C 13.6 °C 1021.9 hPa NNW 8.0 km/h 17.7 km/h 72 % 0.0 mm
09:27 19.1 °C 13.5 °C 1021.6 hPa NNE 3.2 km/h 17.7 km/h 70 % 0.0 mm
09:32 19.3 °C 13.5 °C 1021.6 hPa NNW 9.7 km/h 17.7 km/h 69 % 0.0 mm
09:42 19.5 °C 13.7 °C 1021.6 hPa NNE 12.9 km/h 17.7 km/h 69 % 0.0 mm
09:47 19.7 °C 13.6 °C 1021.6 hPa NNW 9.7 km/h 14.5 km/h 68 % 0.0 mm
09:52 19.8 °C 13.7 °C 1021.6 hPa NNE 8.0 km/h 14.5 km/h 68 % 0.0 mm
10:02 19.9 °C 13.6 °C 1021.6 hPa NW 8.0 km/h 16.1 km/h 67 % 0.0 mm
10:12 20.1 °C 13.5 °C 1021.6 hPa North 9.7 km/h 16.1 km/h 66 % 0.0 mm
10:17 20.2 °C 13.4 °C 1021.6 hPa North 8.0 km/h 17.7 km/h 65 % 0.0 mm
10:27 20.7 °C 13.6 °C 1021.6 hPa NNW 6.4 km/h 17.7 km/h 64 % 0.0 mm
10:37 20.7 °C 13.6 °C 1021.6 hPa NNE 6.4 km/h 22.5 km/h 64 % 0.0 mm
10:42 20.9 °C 13.6 °C 1021.6 hPa NE 9.7 km/h 22.5 km/h 63 % 0.0 mm
10:52 21.4 °C 14.3 °C 1021.6 hPa NNE 6.4 km/h 22.5 km/h 64 % 0.0 mm
10:57 21.3 °C 14.2 °C 1021.6 hPa ENE 4.8 km/h 17.7 km/h 64 % 0.0 mm
11:02 21.6 °C 14.3 °C 1021.6 hPa NW 8.0 km/h 17.7 km/h 63 % 0.0 mm
11:07 21.9 °C 14.3 °C 1021.6 hPa Calm   16.1 km/h 62 % 0.0 mm
11:12 22.1 °C 14.2 °C 1021.6 hPa NE 3.2 km/h 16.1 km/h 61 % 0.0 mm
11:17 22.1 °C 14.2 °C 1021.6 hPa NE 9.7 km/h 14.5 km/h 61 % 0.0 mm
11:22 22.2 °C 14.3 °C 1021.6 hPa NW 4.8 km/h 14.5 km/h 61 % 0.0 mm
11:27 22.4 °C 14.3 °C 1021.6 hPa NW 4.8 km/h 17.7 km/h 60 % 0.0 mm
11:32 22.7 °C 14.3 °C 1021.6 hPa North 6.4 km/h 17.7 km/h 59 % 0.0 mm
11:37 22.6 °C 14.2 °C 1021.6 hPa NW 4.8 km/h 14.5 km/h 59 % 0.0 mm
11:42 22.9 °C 14.2 °C 1021.6 hPa WNW 3.2 km/h 14.5 km/h 58 % 0.0 mm
11:47 22.9 °C 14.5 °C 1021.6 hPa WNW 3.2 km/h 16.1 km/h 59 % 0.0 mm
11:52 22.9 °C 13.9 °C 1021.6 hPa WNW 4.8 km/h 16.1 km/h 57 % 0.0 mm
11:57 23.2 °C 14.2 °C 1021.6 hPa WNW 6.4 km/h 16.1 km/h 57 % 0.0 mm
12:02 23.0 °C 14.6 °C 1021.6 hPa WNW 14.5 km/h 16.1 km/h 59 % 0.0 mm
12:07 22.8 °C 14.4 °C 1021.6 hPa North 8.0 km/h 17.7 km/h 59 % 0.0 mm
12:12 23.2 °C 13.9 °C 1021.6 hPa ENE 1.6 km/h 17.7 km/h 56 % 0.0 mm
12:17 23.3 °C 14.0 °C 1021.6 hPa North 12.9 km/h 17.7 km/h 56 % 0.0 mm
12:22 23.6 °C 14.6 °C 1021.6 hPa NNW 4.8 km/h 11.3 km/h 57 % 0.0 mm
12:27 23.7 °C 13.8 °C 1021.6 hPa NW 14.5 km/h 14.5 km/h 54 % 0.0 mm
12:32 23.7 °C 13.8 °C 1021.6 hPa NNW 9.7 km/h 22.5 km/h 54 % 0.0 mm
12:37 23.6 °C 14.0 °C 1021.6 hPa NNE 1.6 km/h 22.5 km/h 55 % 0.0 mm
12:42 23.9 °C 14.0 °C 1021.6 hPa NW 6.4 km/h 22.5 km/h 54 % 0.0 mm
12:47 24.1 °C 13.9 °C 1021.6 hPa NE 8.0 km/h 17.7 km/h 53 % 0.0 mm
12:52 24.1 °C 13.6 °C 1021.6 hPa NNW 9.7 km/h 17.7 km/h 52 % 0.0 mm
12:57 23.9 °C 14.0 °C 1021.6 hPa NNW 11.3 km/h 19.3 km/h 54 % 0.0 mm
13:02 23.8 °C 13.6 °C 1021.6 hPa North 14.5 km/h 19.3 km/h 53 % 0.0 mm
13:07 23.8 °C 13.9 °C 1021.6 hPa NW 3.2 km/h 17.7 km/h 54 % 0.0 mm
13:12 24.2 °C 14.3 °C 1021.6 hPa NW 8.0 km/h 17.7 km/h 54 % 0.0 mm
13:17 23.9 °C 13.4 °C 1021.6 hPa NW 3.2 km/h 17.7 km/h 52 % 0.0 mm
13:22 23.9 °C 14.0 °C 1021.6 hPa NNW 9.7 km/h 17.7 km/h 54 % 0.0 mm
13:27 24.5 °C 14.0 °C 1021.6 hPa NNW 9.7 km/h 17.7 km/h 52 % 0.0 mm
13:32 24.4 °C 13.9 °C 1021.6 hPa NE 6.4 km/h 17.7 km/h 52 % 0.0 mm
13:37 24.2 °C 13.7 °C 1021.6 hPa NNE 8.0 km/h 19.3 km/h 52 % 0.0 mm
13:42 24.4 °C 13.3 °C 1021.6 hPa WSW 6.4 km/h 19.3 km/h 50 % 0.0 mm
13:47 24.4 °C 14.2 °C 1021.6 hPa NE 3.2 km/h 16.1 km/h 53 % 0.0 mm
13:52 24.6 °C 14.1 °C 1021.6 hPa West 4.8 km/h 16.1 km/h 52 % 0.0 mm
13:57 24.5 °C 13.7 °C 1021.6 hPa SW 4.8 km/h 20.9 km/h 51 % 0.0 mm
14:07 24.4 °C 13.6 °C 1021.2 hPa WNW 1.6 km/h 17.7 km/h 51 % 0.0 mm
14:12 24.7 °C 14.2 °C 1021.2 hPa WNW 9.7 km/h 17.7 km/h 52 % 0.0 mm
14:17 24.7 °C 14.2 °C 1020.9 hPa WSW 12.9 km/h 14.5 km/h 52 % 0.0 mm
14:22 24.8 °C 14.0 °C 1021.2 hPa NW 11.3 km/h 14.5 km/h 51 % 0.0 mm
14:27 24.6 °C 13.8 °C 1020.9 hPa WNW 6.4 km/h 17.7 km/h 51 % 0.0 mm
14:32 24.7 °C 13.6 °C 1020.9 hPa West 9.7 km/h 17.7 km/h 50 % 0.0 mm
14:37 24.7 °C 13.6 °C 1020.9 hPa WNW 1.6 km/h 17.7 km/h 50 % 0.0 mm
14:42 25.0 °C 13.9 °C 1020.9 hPa WNW 6.4 km/h 17.7 km/h 50 % 0.0 mm
14:47 24.7 °C 13.6 °C 1020.9 hPa West 6.4 km/h 17.7 km/h 50 % 0.0 mm
14:52 24.7 °C 13.6 °C 1020.9 hPa WNW 6.4 km/h 17.7 km/h 50 % 0.0 mm
14:57 25.2 °C 14.0 °C 1020.9 hPa WNW 9.7 km/h 16.1 km/h 50 % 0.0 mm
15:02 25.3 °C 14.1 °C 1020.9 hPa WNW 6.4 km/h 16.1 km/h 50 % 0.0 mm
15:07 25.1 °C 13.6 °C 1020.9 hPa NW 9.7 km/h 14.5 km/h 49 % 0.0 mm
15:12 24.9 °C 14.1 °C 1020.9 hPa West 1.6 km/h 14.5 km/h 51 % 0.0 mm
15:17 25.1 °C 13.9 °C 1020.9 hPa NW 4.8 km/h 16.1 km/h 50 % 0.0 mm
15:22 25.0 °C 13.5 °C 1020.9 hPa West 6.4 km/h 16.1 km/h 49 % 0.0 mm
15:32 25.1 °C 13.9 °C 1020.9 hPa West 8.0 km/h 16.1 km/h 50 % 0.0 mm
15:37 24.7 °C 13.9 °C 1020.5 hPa North 4.8 km/h 16.1 km/h 51 % 0.0 mm
15:42 25.1 °C 14.3 °C 1020.5 hPa NE 4.8 km/h 16.1 km/h 51 % 0.0 mm
15:47 25.5 °C 14.0 °C 1020.5 hPa WNW 9.7 km/h 17.7 km/h 49 % 0.0 mm
15:52 25.4 °C 13.6 °C 1020.5 hPa WNW 8.0 km/h 17.7 km/h 48 % 0.0 mm
16:02 25.5 °C 13.7 °C 1020.5 hPa NE 3.2 km/h 17.7 km/h 48 % 0.0 mm
16:07 25.7 °C 13.9 °C 1020.5 hPa NNW 8.0 km/h 14.5 km/h 48 % 0.0 mm
16:12 25.4 °C 13.9 °C 1020.5 hPa WNW 6.4 km/h 14.5 km/h 49 % 0.0 mm
16:17 25.4 °C 13.9 °C 1020.5 hPa WNW 14.5 km/h 20.9 km/h 49 % 0.0 mm
16:22 25.3 °C 13.8 °C 1020.5 hPa NW 8.0 km/h 20.9 km/h 49 % 0.0 mm
16:27 25.3 °C 13.8 °C 1020.5 hPa WNW 12.9 km/h 20.9 km/h 49 % 0.0 mm
16:32 25.2 °C 13.7 °C 1020.2 hPa WNW 6.4 km/h 20.9 km/h 49 % 0.0 mm
16:37 25.0 °C 13.5 °C 1020.2 hPa Calm   14.5 km/h 49 % 0.0 mm
16:47 25.3 °C 13.5 °C 1020.2 hPa SW 6.4 km/h 16.1 km/h 48 % 0.0 mm
16:52 25.3 °C 13.5 °C 1020.2 hPa West 6.4 km/h 16.1 km/h 48 % 0.0 mm
16:57 25.2 °C 13.4 °C 1020.2 hPa North 4.8 km/h 17.7 km/h 48 % 0.0 mm
17:02 25.3 °C 13.5 °C 1020.2 hPa West 6.4 km/h 17.7 km/h 48 % 0.0 mm
17:07 25.2 °C 13.4 °C 1019.9 hPa West 3.2 km/h 19.3 km/h 48 % 0.0 mm
17:17 25.5 °C 13.7 °C 1019.9 hPa NE 4.8 km/h 19.3 km/h 48 % 0.0 mm
17:22 25.6 °C 13.8 °C 1019.9 hPa WNW 16.1 km/h 19.3 km/h 48 % 0.0 mm
17:27 25.7 °C 13.9 °C 1019.9 hPa Calm   17.7 km/h 48 % 0.0 mm
17:32 25.6 °C 13.8 °C 1019.9 hPa WNW 12.9 km/h 17.7 km/h 48 % 0.0 mm
17:42 25.4 °C 13.6 °C 1019.9 hPa WNW 9.7 km/h 17.7 km/h 48 % 0.0 mm
17:47 25.4 °C 13.6 °C 1019.9 hPa WNW 9.7 km/h 22.5 km/h 48 % 0.0 mm
17:52 25.6 °C 13.5 °C 1019.9 hPa WNW 6.4 km/h 22.5 km/h 47 % 0.0 mm
17:57 25.6 °C 13.5 °C 1019.9 hPa WNW 8.0 km/h 12.9 km/h 47 % 0.0 mm
18:02 25.6 °C 13.1 °C 1019.9 hPa WNW 11.3 km/h 12.9 km/h 46 % 0.0 mm
18:07 25.6 °C 13.1 °C 1019.9 hPa WSW 4.8 km/h 14.5 km/h 46 % 0.0 mm
18:12 25.5 °C 13.4 °C 1019.9 hPa NW 8.0 km/h 14.5 km/h 47 % 0.0 mm
18:17 25.4 °C 13.6 °C 1019.9 hPa WNW 9.7 km/h 16.1 km/h 48 % 0.0 mm
18:22 25.3 °C 13.2 °C 1019.9 hPa NNW 8.0 km/h 16.1 km/h 47 % 0.0 mm
18:27 25.2 °C 13.4 °C 1019.9 hPa WNW 6.4 km/h 16.1 km/h 48 % 0.0 mm
18:32 25.4 °C 13.6 °C 1019.9 hPa WNW 8.0 km/h 19.3 km/h 48 % 0.0 mm
18:42 25.6 °C 13.5 °C 1019.9 hPa West 1.6 km/h 12.9 km/h 47 % 0.0 mm
18:47 25.7 °C 13.2 °C 1019.9 hPa WSW 3.2 km/h 16.1 km/h 46 % 0.0 mm
18:52 25.6 °C 13.5 °C 1019.9 hPa North 9.7 km/h 16.1 km/h 47 % 0.0 mm
18:57 25.5 °C 13.4 °C 1019.9 hPa WNW 9.7 km/h 16.1 km/h 47 % 0.0 mm
19:02 25.4 °C 13.3 °C 1019.9 hPa WNW 4.8 km/h 16.1 km/h 47 % 0.0 mm
19:12 25.1 °C 13.0 °C 1019.9 hPa NNW 4.8 km/h 16.1 km/h 47 % 0.0 mm
19:17 25.0 °C 13.2 °C 1019.9 hPa WNW 4.8 km/h 16.1 km/h 48 % 0.0 mm
19:22 25.2 °C 13.4 °C 1019.5 hPa West 8.0 km/h 16.1 km/h 48 % 0.0 mm
19:27 25.1 °C 13.0 °C 1019.9 hPa WNW 1.6 km/h 11.3 km/h 47 % 0.0 mm
19:32 25.0 °C 12.9 °C 1019.9 hPa NW 6.4 km/h 11.3 km/h 47 % 0.0 mm
19:37 25.2 °C 13.1 °C 1019.5 hPa WNW 8.0 km/h 12.9 km/h 47 % 0.0 mm
19:42 25.2 °C 12.8 °C 1019.5 hPa WNW 4.8 km/h 12.9 km/h 46 % 0.0 mm
19:52 24.6 °C 12.9 °C 1019.5 hPa NNW 4.8 km/h 14.5 km/h 48 % 0.0 mm
19:57 24.3 °C 12.6 °C 1019.9 hPa WNW 4.8 km/h 14.5 km/h 48 % 0.0 mm
20:02 24.1 °C 12.7 °C 1019.9 hPa West 6.4 km/h 14.5 km/h 49 % 0.0 mm
20:07 24.0 °C 12.9 °C 1019.9 hPa WNW 3.2 km/h 12.9 km/h 50 % 0.0 mm
20:12 24.1 °C 13.0 °C 1019.9 hPa West 3.2 km/h 12.9 km/h 50 % 0.0 mm
20:17 24.2 °C 12.8 °C 1019.9 hPa NNW 3.2 km/h 9.7 km/h 49 % 0.0 mm
20:22 24.1 °C 12.7 °C 1019.9 hPa Calm   9.7 km/h 49 % 0.0 mm
20:27 23.9 °C 12.5 °C 1019.9 hPa WNW 6.4 km/h 11.3 km/h 49 % 0.0 mm
20:32 23.7 °C 12.4 °C 1019.9 hPa West 4.8 km/h 11.3 km/h 49 % 0.0 mm
20:37 23.9 °C 12.8 °C 1019.9 hPa NW 3.2 km/h 12.9 km/h 50 % 0.0 mm
20:42 23.8 °C 12.8 °C 1019.9 hPa NW 9.7 km/h 12.9 km/h 50 % 0.0 mm
20:47 23.9 °C 12.8 °C 1019.9 hPa NNW 3.2 km/h 11.3 km/h 50 % 0.0 mm
20:52 24.1 °C 13.0 °C 1019.9 hPa Calm   11.3 km/h 50 % 0.0 mm
21:02 23.8 °C 13.1 °C 1019.9 hPa WNW 1.6 km/h 11.3 km/h 51 % 0.0 mm
21:07 23.7 °C 13.3 °C 1019.9 hPa WNW 1.6 km/h 8.0 km/h 52 % 0.0 mm
21:12 23.4 °C 13.0 °C 1019.9 hPa WNW 1.6 km/h 8.0 km/h 52 % 0.0 mm
21:17 23.2 °C 13.1 °C 1019.9 hPa Calm   6.4 km/h 53 % 0.0 mm
21:22 22.8 °C 13.0 °C 1019.9 hPa Calm   6.4 km/h 54 % 0.0 mm
21:27 22.6 °C 13.1 °C 1019.9 hPa Calm   4.8 km/h 55 % 0.0 mm
21:32 22.3 °C 13.1 °C 1019.9 hPa Calm   4.8 km/h 56 % 0.0 mm
21:37 22.1 °C 13.2 °C 1019.9 hPa Calm     57 % 0.0 mm
21:42 21.8 °C 13.2 °C 1019.9 hPa Calm     58 % 0.0 mm
21:52 21.5 °C 13.1 °C 1020.2 hPa Calm     59 % 0.0 mm
21:57 21.4 °C 13.1 °C 1019.9 hPa Calm     59 % 0.0 mm
22:02 21.2 °C 13.1 °C 1019.9 hPa Calm     60 % 0.0 mm
22:07 21.1 °C 13.3 °C 1020.2 hPa Calm     61 % 0.0 mm
22:12 20.9 °C 13.1 °C 1020.2 hPa Calm     61 % 0.0 mm
22:17 20.7 °C 13.2 °C 1020.2 hPa NNW 3.2 km/h 3.2 km/h 62 % 0.0 mm
22:22 20.6 °C 13.3 °C 1020.2 hPa NNW 1.6 km/h 3.2 km/h 63 % 0.0 mm
22:27 20.4 °C 13.1 °C 1020.2 hPa NNW 3.2 km/h 4.8 km/h 63 % 0.0 mm
22:32 20.3 °C 13.3 °C 1020.2 hPa NNW 3.2 km/h 4.8 km/h 64 % 0.0 mm
22:37 20.1 °C 13.3 °C 1020.2 hPa NNW 3.2 km/h 4.8 km/h 65 % 0.0 mm
22:42 20.0 °C 13.2 °C 1020.2 hPa NNW 1.6 km/h 4.8 km/h 65 % 0.0 mm
22:47 19.8 °C 13.3 °C 1020.2 hPa NW 1.6 km/h 6.4 km/h 66 % 0.0 mm
22:52 19.7 °C 13.4 °C 1020.2 hPa NNW 3.2 km/h 6.4 km/h 67 % 0.0 mm
22:57 19.6 °C 13.5 °C 1020.5 hPa NNW 4.8 km/h 6.4 km/h 68 % 0.0 mm
23:02 19.6 °C 13.5 °C 1020.5 hPa NNW 3.2 km/h 6.4 km/h 68 % 0.0 mm
23:07 19.5 °C 13.4 °C 1020.2 hPa NW 4.8 km/h 6.4 km/h 68 % 0.0 mm
23:12 19.4 °C 13.6 °C 1020.2 hPa NNW 3.2 km/h 6.4 km/h 69 % 0.0 mm
23:17 19.3 °C 13.5 °C 1020.2 hPa NW 1.6 km/h 4.8 km/h 69 % 0.0 mm
23:22 19.3 °C 13.5 °C 1020.2 hPa NNW 3.2 km/h 4.8 km/h 69 % 0.0 mm
23:27 19.2 °C 13.4 °C 1020.2 hPa NNW 1.6 km/h 4.8 km/h 69 % 0.0 mm
23:32 19.2 °C 13.4 °C 1020.2 hPa NW 3.2 km/h 4.8 km/h 69 % 0.0 mm
23:37 19.1 °C 13.3 °C 1020.2 hPa NNW 1.6 km/h 4.8 km/h 69 % 0.0 mm
23:42 19.0 °C 13.4 °C 1020.2 hPa NNW 1.6 km/h 4.8 km/h 70 % 0.0 mm
23:47 18.8 °C 13.2 °C 1020.2 hPa Calm   4.8 km/h 70 % 0.0 mm
23:52 18.3 °C 13.0 °C 1020.2 hPa NW 1.6 km/h 4.8 km/h 71 % 0.0 mm
23:57 18.2 °C 13.1 °C 1020.2 hPa WNW 1.6 km/h 3.2 km/h 72 % 0.0 mm
Meteo18
Compliments of Weather Underground - 4 mb

Script developed by  Jim McMurry - jmcmurry@mwt.net Adapted for the template by  Wim van der Kuil - Leuven-Template.eu

You find our weather info also at:

European Weather Network

Weather Underground

Equipment we use:

Weather-station
Davis Vue

Weather-program
Meteohub

Weather-server
Raspberry PI 2 B+

Provider
1 and 1

Davis Vue

Meteohub

Raspberry PI 2 B+

1 and 1